createdAt,value
2022-08-19T00:02:02.698Z,21.30
2022-08-19T00:04:33.824Z,21.30
2022-08-19T00:07:01.579Z,21.30
2022-08-19T00:09:29.416Z,21.20
2022-08-19T00:11:57.610Z,21.20
2022-08-19T00:14:25.853Z,21.30
2022-08-19T00:16:55.005Z,21.20
2022-08-19T00:19:23.134Z,21.20
2022-08-19T00:21:50.363Z,21.20
2022-08-19T00:24:17.436Z,21.10
2022-08-19T00:26:44.882Z,21.10
2022-08-19T00:29:14.399Z,21.10
2022-08-19T00:31:42.767Z,21.10
2022-08-19T00:34:09.907Z,21.00
2022-08-19T00:36:37.962Z,21.00
2022-08-19T00:39:05.166Z,21.00
2022-08-19T00:41:31.913Z,21.00
2022-08-19T00:44:09.625Z,21.00
2022-08-19T00:46:39.287Z,21.00
2022-08-19T00:49:20.416Z,20.90
2022-08-19T00:51:51.553Z,21.00
2022-08-19T00:54:19.234Z,21.00
2022-08-19T00:56:55.610Z,21.00
2022-08-19T00:59:56.540Z,20.90
2022-08-19T01:02:10.297Z,20.90
2022-08-19T01:04:37.045Z,20.90
2022-08-19T01:07:03.971Z,20.90
2022-08-19T01:09:31.958Z,20.90
2022-08-19T01:11:58.825Z,20.90
2022-08-19T01:14:26.415Z,20.90
2022-08-19T01:16:56.539Z,20.80
2022-08-19T01:19:44.319Z,20.80
2022-08-19T01:22:31.388Z,20.80
2022-08-19T01:25:00.363Z,20.70
2022-08-19T01:27:31.458Z,20.60
2022-08-19T01:30:14.556Z,20.60
2022-08-19T01:32:41.646Z,20.60
2022-08-19T01:35:08.861Z,20.60
2022-08-19T01:37:54.230Z,20.60
2022-08-19T01:40:24.010Z,20.60
2022-08-19T01:42:52.062Z,20.60
2022-08-19T01:45:20.659Z,20.50
2022-08-19T01:48:01.125Z,20.50
2022-08-19T01:50:31.491Z,20.50
2022-08-19T01:53:05.965Z,20.50
2022-08-19T01:55:41.268Z,20.50
2022-08-19T01:58:19.693Z,20.50
2022-08-19T02:00:46.719Z,20.50
2022-08-19T02:03:14.182Z,20.40
2022-08-19T02:05:42.043Z,20.40
2022-08-19T02:08:09.902Z,20.40
2022-08-19T02:10:43.596Z,20.40
2022-08-19T02:13:12.456Z,20.40
2022-08-19T02:15:39.503Z,20.40
2022-08-19T02:18:06.618Z,20.30
2022-08-19T02:20:33.362Z,20.30
2022-08-19T02:23:00.913Z,20.30
2022-08-19T02:25:27.697Z,20.30
2022-08-19T02:27:54.989Z,20.20
2022-08-19T02:30:22.336Z,20.20
2022-08-19T02:32:49.179Z,20.20
2022-08-19T02:35:16.465Z,20.20
2022-08-19T02:38:02.829Z,20.20
2022-08-19T02:40:34.816Z,20.10
2022-08-19T02:43:08.405Z,20.20
2022-08-19T02:45:41.394Z,20.10
2022-08-19T02:48:14.946Z,20.10
2022-08-19T02:50:55.953Z,20.10
2022-08-19T02:53:28.376Z,20.10
2022-08-19T02:55:55.575Z,20.20
2022-08-19T02:58:23.823Z,20.10
2022-08-19T03:00:55.032Z,20.10
2022-08-19T03:03:22.260Z,20.10
2022-08-19T03:05:56.977Z,20.10
2022-08-19T03:08:25.333Z,20.10
2022-08-19T03:10:53.801Z,20.00
2022-08-19T03:13:20.544Z,20.00
2022-08-19T03:15:48.670Z,20.00
2022-08-19T03:18:16.149Z,20.00
2022-08-19T03:20:50.180Z,20.00
2022-08-19T03:23:18.214Z,20.00
2022-08-19T03:25:58.404Z,19.90
2022-08-19T03:28:35.318Z,19.90
2022-08-19T03:31:05.378Z,19.90
2022-08-19T03:33:52.887Z,19.90
2022-08-19T03:36:23.798Z,19.90
2022-08-19T03:38:59.505Z,19.90
2022-08-19T03:41:44.376Z,19.80
2022-08-19T03:44:23.143Z,19.90
2022-08-19T03:46:52.447Z,19.80
2022-08-19T03:49:21.035Z,19.80
2022-08-19T03:51:49.788Z,19.80
2022-08-19T03:54:20.233Z,19.80
2022-08-19T03:56:49.546Z,19.80
2022-08-19T03:59:29.266Z,19.80
2022-08-19T04:01:58.869Z,19.80
2022-08-19T04:04:29.334Z,19.80
2022-08-19T04:06:57.771Z,19.80
2022-08-19T04:09:25.090Z,19.80
2022-08-19T04:11:57.704Z,19.80
2022-08-19T04:14:30.437Z,19.80
2022-08-19T04:16:58.794Z,19.80
2022-08-19T04:19:26.420Z,19.80
2022-08-19T04:21:55.190Z,19.90
2022-08-19T04:24:23.085Z,19.90
2022-08-19T04:26:50.452Z,19.90
2022-08-19T04:29:25.853Z,19.80
2022-08-19T04:31:54.539Z,19.80
2022-08-19T04:34:24.849Z,19.80
2022-08-19T04:36:54.213Z,19.90
2022-08-19T04:39:45.370Z,19.90
2022-08-19T04:42:31.342Z,19.90
2022-08-19T04:44:59.485Z,19.80
2022-08-19T04:47:48.253Z,19.80
2022-08-19T04:50:13.315Z,19.80
2022-08-19T04:52:48.994Z,19.90
2022-08-19T04:55:15.721Z,19.90
2022-08-19T04:57:42.589Z,19.90
2022-08-19T05:00:10.444Z,20.00
2022-08-19T05:02:37.444Z,20.00
2022-08-19T05:05:04.642Z,20.00
2022-08-19T05:07:31.771Z,20.00
2022-08-19T05:09:59.304Z,20.00
2022-08-19T05:12:29.310Z,20.00
2022-08-19T05:14:57.879Z,20.00
2022-08-19T05:17:30.311Z,20.00
2022-08-19T05:20:18.950Z,20.10
2022-08-19T05:22:48.000Z,20.10
2022-08-19T05:25:19.431Z,20.10
2022-08-19T05:27:47.077Z,20.20
2022-08-19T05:30:14.326Z,20.20
2022-08-19T05:32:41.546Z,20.20
2022-08-19T05:35:08.933Z,20.30
2022-08-19T05:37:35.829Z,20.30
2022-08-19T05:40:03.284Z,20.30
2022-08-19T05:42:31.507Z,20.30
2022-08-19T05:44:58.358Z,20.30
2022-08-19T05:47:25.123Z,20.30
2022-08-19T05:49:52.042Z,20.30
2022-08-19T05:52:19.425Z,20.30
2022-08-19T05:54:52.204Z,20.20
2022-08-19T05:57:20.708Z,20.20
2022-08-19T05:59:49.458Z,20.10
2022-08-19T06:02:20.514Z,20.10
2022-08-19T06:04:47.499Z,20.10
2022-08-19T06:07:14.601Z,20.10
2022-08-19T06:09:43.683Z,20.10
2022-08-19T06:12:31.579Z,20.20
2022-08-19T06:15:00.728Z,20.20
2022-08-19T06:17:28.386Z,20.30
2022-08-19T06:19:55.087Z,20.30
2022-08-19T06:22:21.893Z,20.30
2022-08-19T06:24:48.740Z,20.30
2022-08-19T06:27:16.893Z,20.20
2022-08-19T06:29:43.750Z,20.20
2022-08-19T06:32:10.606Z,20.30
2022-08-19T06:34:39.409Z,20.30
2022-08-19T06:37:06.709Z,20.30
2022-08-19T06:39:36.733Z,20.30
2022-08-19T06:42:07.134Z,20.30
2022-08-19T06:44:42.681Z,20.30
2022-08-19T06:47:14.685Z,20.40
2022-08-19T06:49:43.061Z,20.40
2022-08-19T06:52:13.705Z,20.40
2022-08-19T06:54:53.724Z,20.50
2022-08-19T06:57:24.914Z,20.60
2022-08-19T06:59:52.546Z,20.70
2022-08-19T07:02:20.264Z,20.80
2022-08-19T07:04:47.302Z,20.80
2022-08-19T07:07:21.009Z,20.90
2022-08-19T07:09:52.270Z,21.00
2022-08-19T07:12:35.540Z,21.10
2022-08-19T07:15:09.497Z,21.10
2022-08-19T07:17:40.172Z,21.20
2022-08-19T07:20:09.416Z,21.20
2022-08-19T07:22:38.542Z,21.20
2022-08-19T07:25:08.228Z,21.30
2022-08-19T07:27:35.411Z,21.40
2022-08-19T07:30:02.322Z,21.50
2022-08-19T07:32:29.316Z,21.40
2022-08-19T07:34:57.151Z,21.50
2022-08-19T07:37:32.441Z,21.60
2022-08-19T07:40:00.352Z,21.60
2022-08-19T07:42:27.660Z,21.60
2022-08-19T07:44:54.441Z,21.60
2022-08-19T07:47:58.424Z,21.50
2022-08-19T07:50:12.110Z,21.60
2022-08-19T07:52:40.509Z,21.60
2022-08-19T07:55:40.504Z,21.60
2022-08-19T07:57:58.012Z,21.60
2022-08-19T08:00:25.003Z,21.50
2022-08-19T08:02:55.444Z,21.50
2022-08-19T08:05:43.911Z,21.60
2022-08-19T08:08:30.740Z,21.70
2022-08-19T08:10:58.076Z,21.70
2022-08-19T08:13:26.528Z,21.70
2022-08-19T08:15:54.731Z,21.80
2022-08-19T08:18:23.110Z,21.80
2022-08-19T08:20:56.043Z,21.90
2022-08-19T08:23:23.524Z,21.90
2022-08-19T08:25:50.792Z,22.00
2022-08-19T08:28:19.374Z,22.10
2022-08-19T08:30:48.325Z,22.20
2022-08-19T08:33:34.216Z,22.30
2022-08-19T08:36:09.224Z,22.50
2022-08-19T08:38:41.283Z,22.70
2022-08-19T08:41:29.242Z,22.70
2022-08-19T08:43:58.035Z,22.80
2022-08-19T08:46:41.040Z,23.00
2022-08-19T08:49:17.064Z,23.10
2022-08-19T08:51:59.389Z,23.30
2022-08-19T08:54:38.547Z,23.30
2022-08-19T08:57:12.779Z,23.50
2022-08-19T08:59:42.988Z,23.70
2022-08-19T09:02:10.602Z,23.70
2022-08-19T09:04:38.455Z,23.80
2022-08-19T09:07:35.079Z,24.10
2022-08-19T09:10:44.719Z,24.10
2022-08-19T09:13:24.378Z,24.40
2022-08-19T09:16:06.296Z,24.60
2022-08-19T09:18:47.977Z,24.70
2022-08-19T09:21:16.481Z,24.90
2022-08-19T09:23:44.571Z,25.00
2022-08-19T09:26:16.740Z,25.00
2022-08-19T09:28:48.252Z,25.10
2022-08-19T09:31:19.948Z,25.20
2022-08-19T09:33:47.266Z,25.20
2022-08-19T09:36:31.068Z,25.30
2022-08-19T09:39:01.941Z,25.30
2022-08-19T09:41:29.781Z,25.30
2022-08-19T09:43:58.645Z,25.40
2022-08-19T09:46:29.691Z,25.40
2022-08-19T09:49:03.081Z,25.30
2022-08-19T09:51:33.738Z,25.30
2022-08-19T09:54:04.900Z,25.30
2022-08-19T09:56:32.842Z,25.40
2022-08-19T09:59:02.918Z,25.40
2022-08-19T10:01:32.154Z,25.40
2022-08-19T10:04:00.454Z,25.30
2022-08-19T10:06:46.403Z,25.40
2022-08-19T10:09:15.447Z,25.60
2022-08-19T10:11:51.188Z,25.80
2022-08-19T10:14:23.372Z,25.80
2022-08-19T10:16:51.762Z,25.90
2022-08-19T10:19:25.648Z,26.00
2022-08-19T10:21:54.376Z,26.00
2022-08-19T10:24:25.264Z,25.80
2022-08-19T10:26:57.392Z,26.10
2022-08-19T10:29:32.084Z,26.20
2022-08-19T10:32:09.465Z,26.40
2022-08-19T10:34:38.072Z,26.50
2022-08-19T10:37:15.209Z,26.70
2022-08-19T10:39:48.839Z,26.90
2022-08-19T10:42:17.927Z,26.80
2022-08-19T10:44:44.799Z,27.00
2022-08-19T10:47:24.765Z,27.00
2022-08-19T10:50:12.951Z,26.80
2022-08-19T10:52:49.629Z,26.70
2022-08-19T10:55:42.474Z,26.80
2022-08-19T10:58:23.201Z,26.60
2022-08-19T11:00:55.647Z,26.50
2022-08-19T11:03:22.876Z,26.40
2022-08-19T11:06:02.054Z,26.40
2022-08-19T11:08:29.079Z,26.50
2022-08-19T11:10:58.447Z,26.60
2022-08-19T11:13:25.599Z,26.70
2022-08-19T11:16:23.237Z,26.70
2022-08-19T11:18:53.872Z,27.00
2022-08-19T11:21:32.042Z,27.00
2022-08-19T11:24:02.161Z,27.10
2022-08-19T11:26:31.135Z,27.10
2022-08-19T11:28:59.784Z,27.20
2022-08-19T11:31:29.509Z,27.30
2022-08-19T11:34:01.080Z,27.10
2022-08-19T11:36:28.852Z,27.10
2022-08-19T11:38:55.947Z,26.80
2022-08-19T11:41:24.344Z,26.70
2022-08-19T11:43:53.781Z,26.70
2022-08-19T11:46:20.987Z,26.70
2022-08-19T11:48:49.041Z,26.80
2022-08-19T11:51:19.745Z,26.90
2022-08-19T11:53:47.202Z,26.70
2022-08-19T11:56:14.383Z,26.70
2022-08-19T11:58:44.671Z,26.80
2022-08-19T12:01:17.050Z,26.80
2022-08-19T12:03:45.840Z,26.80
2022-08-19T12:06:16.058Z,26.40
2022-08-19T12:08:44.233Z,26.50
2022-08-19T12:11:13.553Z,27.00
2022-08-19T12:13:41.010Z,27.30
2022-08-19T12:16:17.098Z,27.40
2022-08-19T12:18:47.392Z,27.20
2022-08-19T12:21:15.815Z,27.10
2022-08-19T12:23:44.121Z,27.30
2022-08-19T12:26:11.887Z,27.50
2022-08-19T12:28:39.438Z,27.70
2022-08-19T12:31:06.716Z,27.60
2022-08-19T12:33:33.526Z,27.70
2022-08-19T12:36:06.385Z,28.00
2022-08-19T12:38:33.739Z,27.90
2022-08-19T12:41:00.601Z,28.20
2022-08-19T12:43:28.318Z,28.40
2022-08-19T12:45:55.031Z,28.20
2022-08-19T12:48:33.290Z,27.90
2022-08-19T12:51:02.947Z,27.50
2022-08-19T12:53:30.029Z,27.60
2022-08-19T12:55:58.214Z,28.20
2022-08-19T12:58:27.376Z,28.60
2022-08-19T13:00:54.595Z,29.30
2022-08-19T13:03:23.546Z,29.80
2022-08-19T13:05:52.133Z,30.10
2022-08-19T13:08:19.070Z,30.40
2022-08-19T13:10:45.912Z,30.40
2022-08-19T13:13:12.651Z,30.60
2022-08-19T13:15:43.686Z,30.80
2022-08-19T13:18:11.816Z,30.90
2022-08-19T13:20:41.609Z,31.10
2022-08-19T13:23:09.216Z,31.10
2022-08-19T13:25:37.123Z,30.90
2022-08-19T13:28:04.962Z,31.40
2022-08-19T13:30:51.218Z,31.60
2022-08-19T13:33:18.346Z,31.90
2022-08-19T13:35:49.456Z,31.80
2022-08-19T13:38:22.265Z,32.00
2022-08-19T13:40:51.236Z,32.00
2022-08-19T13:43:22.779Z,31.60
2022-08-19T13:45:56.776Z,31.80
2022-08-19T13:48:24.577Z,31.90
2022-08-19T13:50:51.354Z,31.90
2022-08-19T13:53:18.791Z,32.30
2022-08-19T13:55:46.041Z,33.10
2022-08-19T13:58:14.055Z,32.80
2022-08-19T14:00:44.774Z,33.10
2022-08-19T14:03:12.178Z,33.30
2022-08-19T14:05:40.191Z,33.80
2022-08-19T14:08:07.194Z,33.90
2022-08-19T14:10:34.319Z,33.60
2022-08-19T14:13:03.288Z,33.70
2022-08-19T14:15:31.146Z,33.90
2022-08-19T14:17:58.079Z,34.30
2022-08-19T14:20:25.901Z,34.00
2022-08-19T14:22:54.003Z,33.70
2022-08-19T14:25:25.221Z,32.80
2022-08-19T14:27:52.171Z,31.90
2022-08-19T14:30:27.797Z,31.10
2022-08-19T14:32:55.492Z,30.70
2022-08-19T14:35:23.403Z,30.20
2022-08-19T14:37:50.737Z,30.10
2022-08-19T14:40:22.210Z,29.90
2022-08-19T14:42:49.440Z,29.60
2022-08-19T14:45:16.177Z,29.50
2022-08-19T14:47:43.077Z,29.30
2022-08-19T14:50:17.745Z,29.20
2022-08-19T14:52:47.412Z,29.30
2022-08-19T14:55:14.817Z,29.20
2022-08-19T14:57:42.929Z,29.20
2022-08-19T15:00:14.158Z,29.10
2022-08-19T15:02:42.516Z,29.10
2022-08-19T15:05:09.870Z,29.00
2022-08-19T15:07:37.166Z,28.70
2022-08-19T15:10:07.787Z,28.80
2022-08-19T15:12:41.174Z,28.70
2022-08-19T15:15:14.170Z,28.60
2022-08-19T15:17:45.219Z,28.60
2022-08-19T15:20:16.795Z,28.60
2022-08-19T15:22:43.532Z,28.60
2022-08-19T15:25:13.482Z,28.50
2022-08-19T15:27:41.796Z,28.50
2022-08-19T15:30:10.751Z,28.60
2022-08-19T15:32:39.103Z,28.60
2022-08-19T15:35:07.451Z,28.50
2022-08-19T15:37:34.406Z,28.40
2022-08-19T15:40:06.480Z,28.50
2022-08-19T15:42:33.987Z,28.60
2022-08-19T15:45:02.510Z,28.70
2022-08-19T15:47:34.770Z,28.80
2022-08-19T15:50:11.111Z,28.70
2022-08-19T15:52:50.324Z,28.60
2022-08-19T15:55:46.001Z,28.60
2022-08-19T15:58:33.212Z,28.40
2022-08-19T16:01:21.286Z,28.20
2022-08-19T16:04:14.609Z,28.00
2022-08-19T16:06:49.878Z,27.80
2022-08-19T16:09:18.154Z,27.80
2022-08-19T16:11:56.647Z,27.80
2022-08-19T16:14:25.345Z,27.60
2022-08-19T16:16:52.539Z,27.60
2022-08-19T16:19:20.761Z,27.50
2022-08-19T16:21:50.495Z,27.30
2022-08-19T16:24:19.097Z,27.20
2022-08-19T16:26:47.418Z,27.00
2022-08-19T16:29:15.606Z,27.00
2022-08-19T16:32:03.224Z,26.90
2022-08-19T16:34:30.722Z,26.80
2022-08-19T16:36:57.504Z,26.80
2022-08-19T16:39:24.487Z,26.80
2022-08-19T16:41:51.635Z,26.90
2022-08-19T16:44:19.416Z,26.80
2022-08-19T16:46:47.393Z,26.80
2022-08-19T16:49:53.947Z,26.80
2022-08-19T16:52:19.247Z,26.70
2022-08-19T16:54:46.209Z,26.70
2022-08-19T16:57:13.615Z,26.50
2022-08-19T16:59:48.224Z,26.40
2022-08-19T17:02:17.981Z,26.40
2022-08-19T17:04:44.950Z,26.30
2022-08-19T17:07:24.656Z,26.40
2022-08-19T17:09:52.631Z,26.40
2022-08-19T17:12:19.457Z,26.40
2022-08-19T17:14:46.260Z,26.30
2022-08-19T17:17:13.149Z,26.30
2022-08-19T17:19:42.157Z,26.30
2022-08-19T17:22:11.424Z,26.30
2022-08-19T17:24:40.664Z,26.20
2022-08-19T17:27:07.889Z,26.20
2022-08-19T17:29:34.883Z,26.20
2022-08-19T17:32:01.910Z,26.20
2022-08-19T17:34:28.917Z,26.20
2022-08-19T17:36:56.995Z,26.00
2022-08-19T17:39:24.216Z,26.00
2022-08-19T17:41:51.218Z,25.90
2022-08-19T17:44:18.889Z,25.90
2022-08-19T17:46:46.606Z,25.90
2022-08-19T17:49:13.366Z,25.90
2022-08-19T17:51:43.778Z,25.90
2022-08-19T17:54:15.378Z,25.90
2022-08-19T17:56:43.300Z,25.90
2022-08-19T17:59:11.815Z,25.80
2022-08-19T18:01:53.889Z,25.90
2022-08-19T18:04:23.366Z,25.90
2022-08-19T18:06:53.318Z,25.80
2022-08-19T18:09:40.394Z,25.80
2022-08-19T18:12:10.702Z,25.80
2022-08-19T18:14:39.498Z,25.80
2022-08-19T18:17:09.925Z,25.70
2022-08-19T18:19:41.442Z,25.60
2022-08-19T18:22:10.544Z,25.50
2022-08-19T18:24:42.075Z,25.50
2022-08-19T18:27:09.883Z,25.50
2022-08-19T18:29:38.377Z,25.50
2022-08-19T18:32:06.860Z,25.50
2022-08-19T18:34:36.610Z,25.40
2022-08-19T18:37:03.503Z,25.40
2022-08-19T18:39:48.717Z,25.30
2022-08-19T18:42:35.116Z,25.20
2022-08-19T18:45:20.621Z,25.10
2022-08-19T18:48:05.856Z,25.00
2022-08-19T18:50:34.674Z,24.90
2022-08-19T18:53:01.842Z,24.90
2022-08-19T18:55:29.282Z,24.90
2022-08-19T18:57:56.239Z,24.90
2022-08-19T19:00:23.268Z,24.90
2022-08-19T19:02:50.102Z,24.80
2022-08-19T19:05:16.883Z,24.80
2022-08-19T19:07:43.946Z,24.80
2022-08-19T19:10:10.763Z,24.80
2022-08-19T19:12:44.442Z,24.70
2022-08-19T19:15:12.650Z,24.70
2022-08-19T19:17:39.895Z,24.60
2022-08-19T19:20:06.889Z,24.50
2022-08-19T19:22:33.617Z,24.50
2022-08-19T19:25:00.460Z,24.40
2022-08-19T19:27:27.245Z,24.40
2022-08-19T19:29:54.467Z,24.40
2022-08-19T19:32:28.096Z,24.30
2022-08-19T19:34:55.232Z,24.30
2022-08-19T19:37:22.626Z,24.30
2022-08-19T19:39:49.455Z,24.20
2022-08-19T19:42:20.989Z,24.20
2022-08-19T19:44:50.870Z,24.00
2022-08-19T19:47:19.275Z,23.90
2022-08-19T19:52:38.654Z,23.90
2022-08-19T19:55:05.897Z,23.80
2022-08-19T19:57:32.722Z,23.80
2022-08-19T20:00:00.166Z,23.80
2022-08-19T20:02:27.082Z,23.80
2022-08-19T20:04:55.025Z,23.80
2022-08-19T20:07:41.710Z,23.70
2022-08-19T20:10:08.830Z,23.80
2022-08-19T20:12:35.810Z,23.70
2022-08-19T20:15:03.346Z,23.60
2022-08-19T20:17:30.376Z,23.50
2022-08-19T20:19:58.103Z,23.40
2022-08-19T20:22:25.912Z,23.30
2022-08-19T20:24:55.456Z,23.20
2022-08-19T20:27:25.788Z,23.20
2022-08-19T20:29:53.442Z,23.10
2022-08-19T20:32:20.259Z,23.00
2022-08-19T20:34:49.232Z,23.00
2022-08-19T20:37:16.367Z,22.90
2022-08-19T20:39:43.183Z,22.90
2022-08-19T20:42:10.107Z,22.90
2022-08-19T20:44:37.889Z,22.80
2022-08-19T20:47:05.089Z,22.70
2022-08-19T20:49:32.617Z,22.70
2022-08-19T20:52:00.178Z,22.60
2022-08-19T20:54:28.159Z,22.50
2022-08-19T20:56:55.080Z,22.50
2022-08-19T20:59:22.938Z,22.40
2022-08-19T21:01:53.143Z,22.40
2022-08-19T21:04:22.051Z,22.50
2022-08-19T21:06:50.016Z,22.40
2022-08-19T21:09:16.879Z,22.40
2022-08-19T21:11:44.111Z,22.30
2022-08-19T21:14:10.861Z,22.30
2022-08-19T21:16:37.616Z,22.30
2022-08-19T21:19:05.109Z,22.30
2022-08-19T21:21:33.207Z,22.20
2022-08-19T21:24:00.008Z,22.20
2022-08-19T21:26:27.249Z,22.20
2022-08-19T21:28:54.058Z,22.20
2022-08-19T21:31:21.156Z,22.30
2022-08-19T21:33:48.071Z,22.30
2022-08-19T21:36:14.962Z,22.30
2022-08-19T21:38:41.699Z,22.30
2022-08-19T21:41:08.555Z,22.40
2022-08-19T21:43:36.936Z,22.40
2022-08-19T21:46:04.095Z,22.40
2022-08-19T21:48:31.084Z,22.30
2022-08-19T21:50:57.848Z,22.30
2022-08-19T21:53:24.555Z,22.40
2022-08-19T21:55:53.657Z,22.40
2022-08-19T21:58:28.213Z,22.40
2022-08-19T22:01:02.166Z,22.40
2022-08-19T22:03:29.212Z,22.40
2022-08-19T22:05:56.023Z,22.40
2022-08-19T22:08:23.263Z,22.30
2022-08-19T22:10:50.074Z,22.30
2022-08-19T22:13:18.294Z,22.30
2022-08-19T22:15:46.243Z,22.30
2022-08-19T22:18:13.731Z,22.40
2022-08-19T22:20:41.004Z,22.40
2022-08-19T22:23:08.315Z,22.30
2022-08-19T22:25:46.401Z,22.40
2022-08-19T22:28:14.916Z,22.40
2022-08-19T22:30:47.122Z,22.30
2022-08-19T22:33:18.814Z,22.30
2022-08-19T22:35:46.963Z,22.30
2022-08-19T22:38:14.688Z,22.30
2022-08-19T22:40:46.017Z,22.30
2022-08-19T22:43:19.768Z,22.30
2022-08-19T22:45:48.569Z,22.40
2022-08-19T22:48:17.450Z,22.40
2022-08-19T22:51:05.898Z,22.40
2022-08-19T22:53:34.720Z,22.40
2022-08-19T22:56:01.937Z,22.40
2022-08-19T22:58:29.717Z,22.30
2022-08-19T23:00:58.021Z,22.30
2022-08-19T23:03:25.700Z,22.20
2022-08-19T23:05:52.773Z,22.20
2022-08-19T23:08:19.541Z,22.20
2022-08-19T23:10:48.510Z,22.20
2022-08-19T23:13:17.158Z,22.20
2022-08-19T23:15:46.191Z,22.10
2022-08-19T23:18:14.312Z,22.10
2022-08-19T23:20:43.358Z,22.00
2022-08-19T23:23:12.690Z,22.10
2022-08-19T23:25:40.467Z,22.10
2022-08-19T23:28:25.769Z,22.00
2022-08-19T23:30:53.732Z,22.00
2022-08-19T23:33:24.959Z,22.00
2022-08-19T23:35:55.938Z,21.90
2022-08-19T23:38:24.124Z,21.90
2022-08-19T23:40:52.974Z,21.90
2022-08-19T23:43:24.384Z,21.80
2022-08-19T23:45:53.371Z,21.80
2022-08-19T23:48:24.885Z,21.80
2022-08-19T23:50:54.068Z,21.80
2022-08-19T23:53:21.503Z,21.80
2022-08-19T23:55:49.755Z,21.80
2022-08-19T23:58:17.855Z,21.80
